sensor_id;sensor_type;location;lat;lon;timestamp;temperature;humidity
10885;DHT22;5495;53.252;10.390;2023-04-03T00:00:57;4.40;99.90
10885;DHT22;5495;53.252;10.390;2023-04-03T00:03:28;1.60;99.90
10885;DHT22;5495;53.252;10.390;2023-04-03T00:05:59;1.60;99.90
10885;DHT22;5495;53.252;10.390;2023-04-03T00:08:42;2.30;99.90
10885;DHT22;5495;53.252;10.390;2023-04-03T00:11:15;1.90;99.90
10885;DHT22;5495;53.252;10.390;2023-04-03T00:13:46;1.60;99.90
10885;DHT22;5495;53.252;10.390;2023-04-03T00:16:19;1.50;99.90
10885;DHT22;5495;53.252;10.390;2023-04-03T00:18:53;1.60;99.90
10885;DHT22;5495;53.252;10.390;2023-04-03T00:21:34;1.60;99.90
10885;DHT22;5495;53.252;10.390;2023-04-03T00:24:01;1.50;99.90
10885;DHT22;5495;53.252;10.390;2023-04-03T00:26:34;1.60;99.90
10885;DHT22;5495;53.252;10.390;2023-04-03T00:29:07;2.60;99.90
10885;DHT22;5495;53.252;10.390;2023-04-03T00:31:43;0.80;99.90
10885;DHT22;5495;53.252;10.390;2023-04-03T00:34:15;3.10;99.90
10885;DHT22;5495;53.252;10.390;2023-04-03T00:37:00;1.40;99.90
10885;DHT22;5495;53.252;10.390;2023-04-03T00:39:29;1.30;99.90
10885;DHT22;5495;53.252;10.390;2023-04-03T00:41:59;-1.00;99.90
10885;DHT22;5495;53.252;10.390;2023-04-03T00:47:32;1.10;99.90
10885;DHT22;5495;53.252;10.390;2023-04-03T00:50:02;1.10;99.90
10885;DHT22;5495;53.252;10.390;2023-04-03T00:52:30;1.10;99.90
10885;DHT22;5495;53.252;10.390;2023-04-03T00:55:08;1.10;99.90
10885;DHT22;5495;53.252;10.390;2023-04-03T00:57:39;1.40;99.90
10885;DHT22;5495;53.252;10.390;2023-04-03T01:00:19;1.10;99.90
10885;DHT22;5495;53.252;10.390;2023-04-03T01:02:48;1.00;99.90
10885;DHT22;5495;53.252;10.390;2023-04-03T01:05:23;1.90;99.90
10885;DHT22;5495;53.252;10.390;2023-04-03T01:07:53;1.70;99.90
10885;DHT22;5495;53.252;10.390;2023-04-03T01:10:27;0.80;99.90
10885;DHT22;5495;53.252;10.390;2023-04-03T01:12:55;1.10;99.90
10885;DHT22;5495;53.252;10.390;2023-04-03T01:15:24;0.80;99.90
10885;DHT22;5495;53.252;10.390;2023-04-03T01:17:54;0.70;99.90
10885;DHT22;5495;53.252;10.390;2023-04-03T01:24:19;-1.70;99.90
10885;DHT22;5495;53.252;10.390;2023-04-03T01:27:02;0.80;99.90
10885;DHT22;5495;53.252;10.390;2023-04-03T01:29:30;-1.20;99.90
10885;DHT22;5495;53.252;10.390;2023-04-03T01:32:01;0.70;99.90
10885;DHT22;5495;53.252;10.390;2023-04-03T01:34:31;0.80;99.90
10885;DHT22;5495;53.252;10.390;2023-04-03T01:36:58;0.80;99.90
10885;DHT22;5495;53.252;10.390;2023-04-03T01:39:28;0.80;99.90
10885;DHT22;5495;53.252;10.390;2023-04-03T01:41:55;0.80;99.90
10885;DHT22;5495;53.252;10.390;2023-04-03T01:44:26;3.80;99.90
10885;DHT22;5495;53.252;10.390;2023-04-03T01:46:55;0.50;99.90
10885;DHT22;5495;53.252;10.390;2023-04-03T01:52:10;0.50;99.90
10885;DHT22;5495;53.252;10.390;2023-04-03T01:54:40;1.20;99.90
10885;DHT22;5495;53.252;10.390;2023-04-03T01:57:10;2.40;99.90
10885;DHT22;5495;53.252;10.390;2023-04-03T01:59:38;0.50;99.90
10885;DHT22;5495;53.252;10.390;2023-04-03T02:02:10;0.50;99.90
10885;DHT22;5495;53.252;10.390;2023-04-03T02:04:39;0.40;99.90
10885;DHT22;5495;53.252;10.390;2023-04-03T02:07:09;1.50;99.90
10885;DHT22;5495;53.252;10.390;2023-04-03T02:09:38;0.30;99.90
10885;DHT22;5495;53.252;10.390;2023-04-03T02:12:15;0.80;99.90
10885;DHT22;5495;53.252;10.390;2023-04-03T02:14:44;3.80;99.90
10885;DHT22;5495;53.252;10.390;2023-04-03T02:17:13;0.40;99.90
10885;DHT22;5495;53.252;10.390;2023-04-03T02:19:47;0.50;99.90
10885;DHT22;5495;53.252;10.390;2023-04-03T02:22:19;0.40;99.90
10885;DHT22;5495;53.252;10.390;2023-04-03T02:24:49;0.40;99.90
10885;DHT22;5495;53.252;10.390;2023-04-03T02:27:17;0.40;99.90
10885;DHT22;5495;53.252;10.390;2023-04-03T02:29:50;0.20;99.90
10885;DHT22;5495;53.252;10.390;2023-04-03T02:32:20;0.30;99.90
10885;DHT22;5495;53.252;10.390;2023-04-03T02:34:51;0.50;99.90
10885;DHT22;5495;53.252;10.390;2023-04-03T02:37:27;0.30;99.90
10885;DHT22;5495;53.252;10.390;2023-04-03T02:39:54;0.30;99.90
10885;DHT22;5495;53.252;10.390;2023-04-03T02:42:37;0.30;99.90
10885;DHT22;5495;53.252;10.390;2023-04-03T02:45:07;0.30;99.90
10885;DHT22;5495;53.252;10.390;2023-04-03T02:47:36;2.00;99.90
10885;DHT22;5495;53.252;10.390;2023-04-03T02:50:05;0.70;99.90
10885;DHT22;5495;53.252;10.390;2023-04-03T02:52:39;0.30;99.90
10885;DHT22;5495;53.252;10.390;2023-04-03T02:55:09;0.30;99.90
10885;DHT22;5495;53.252;10.390;2023-04-03T02:57:42;0.40;99.90
10885;DHT22;5495;53.252;10.390;2023-04-03T03:00:14;0.30;99.90
10885;DHT22;5495;53.252;10.390;2023-04-03T03:02:46;0.20;99.90
10885;DHT22;5495;53.252;10.390;2023-04-03T03:05:15;3.60;99.90
10885;DHT22;5495;53.252;10.390;2023-04-03T03:07:45;0.20;99.90
10885;DHT22;5495;53.252;10.390;2023-04-03T03:10:19;1.90;99.90
10885;DHT22;5495;53.252;10.390;2023-04-03T03:12:54;0.20;99.90
10885;DHT22;5495;53.252;10.390;2023-04-03T03:15:21;1.60;99.90
10885;DHT22;5495;53.252;10.390;2023-04-03T03:17:55;2.30;99.90
10885;DHT22;5495;53.252;10.390;2023-04-03T03:20:26;-0.10;99.90
10885;DHT22;5495;53.252;10.390;2023-04-03T03:28:40;0.20;99.90
10885;DHT22;5495;53.252;10.390;2023-04-03T03:31:18;0.10;99.90
10885;DHT22;5495;53.252;10.390;2023-04-03T03:33:45;0.00;99.90
10885;DHT22;5495;53.252;10.390;2023-04-03T03:36:22;0.10;99.90
10885;DHT22;5495;53.252;10.390;2023-04-03T03:38:54;0.00;99.90
10885;DHT22;5495;53.252;10.390;2023-04-03T03:41:23;0.00;99.90
10885;DHT22;5495;53.252;10.390;2023-04-03T03:43:59;-0.10;99.90
10885;DHT22;5495;53.252;10.390;2023-04-03T03:46:32;0.00;99.90
10885;DHT22;5495;53.252;10.390;2023-04-03T03:49:04;0.00;99.90
10885;DHT22;5495;53.252;10.390;2023-04-03T03:51:53;-0.10;99.90
10885;DHT22;5495;53.252;10.390;2023-04-03T03:54:28;-0.10;99.90
10885;DHT22;5495;53.252;10.390;2023-04-03T03:57:02;-0.10;99.90
10885;DHT22;5495;53.252;10.390;2023-04-03T03:59:30;-0.10;99.90
10885;DHT22;5495;53.252;10.390;2023-04-03T04:02:05;-0.10;99.90
10885;DHT22;5495;53.252;10.390;2023-04-03T04:04:39;0.00;99.90
10885;DHT22;5495;53.252;10.390;2023-04-03T04:07:10;-0.10;99.90
10885;DHT22;5495;53.252;10.390;2023-04-03T04:09:52;-0.10;99.90
10885;DHT22;5495;53.252;10.390;2023-04-03T04:12:19;-0.20;99.90
10885;DHT22;5495;53.252;10.390;2023-04-03T04:14:54;-0.20;99.90
10885;DHT22;5495;53.252;10.390;2023-04-03T04:17:27;-0.20;99.90
10885;DHT22;5495;53.252;10.390;2023-04-03T04:19:57;-0.20;99.90
10885;DHT22;5495;53.252;10.390;2023-04-03T04:22:28;-0.20;99.90
10885;DHT22;5495;53.252;10.390;2023-04-03T04:24:57;-0.20;99.90
10885;DHT22;5495;53.252;10.390;2023-04-03T04:27:32;-0.10;99.90
10885;DHT22;5495;53.252;10.390;2023-04-03T04:30:02;-0.10;99.90
10885;DHT22;5495;53.252;10.390;2023-04-03T04:32:38;-0.10;99.90
10885;DHT22;5495;53.252;10.390;2023-04-03T04:35:14;0.00;99.90
10885;DHT22;5495;53.252;10.390;2023-04-03T04:37:44;-0.10;99.90
10885;DHT22;5495;53.252;10.390;2023-04-03T04:40:23;-0.20;99.90
10885;DHT22;5495;53.252;10.390;2023-04-03T04:42:58;-0.20;99.90
10885;DHT22;5495;53.252;10.390;2023-04-03T04:45:41;-0.40;99.90
10885;DHT22;5495;53.252;10.390;2023-04-03T04:48:12;-0.30;99.90
10885;DHT22;5495;53.252;10.390;2023-04-03T04:50:42;-0.30;99.90
10885;DHT22;5495;53.252;10.390;2023-04-03T04:53:27;-0.30;99.90
10885;DHT22;5495;53.252;10.390;2023-04-03T04:56:07;-0.30;99.90
10885;DHT22;5495;53.252;10.390;2023-04-03T05:01:27;-0.40;99.90
10885;DHT22;5495;53.252;10.390;2023-04-03T05:03:59;-0.30;99.90
10885;DHT22;5495;53.252;10.390;2023-04-03T05:06:44;-0.30;99.90
10885;DHT22;5495;53.252;10.390;2023-04-03T05:09:13;-0.30;99.90
10885;DHT22;5495;53.252;10.390;2023-04-03T05:11:51;-0.20;99.90
10885;DHT22;5495;53.252;10.390;2023-04-03T05:14:18;-0.40;99.90
10885;DHT22;5495;53.252;10.390;2023-04-03T05:16:59;-0.30;99.90
10885;DHT22;5495;53.252;10.390;2023-04-03T05:19:28;-0.20;99.90
10885;DHT22;5495;53.252;10.390;2023-04-03T05:22:00;-0.20;99.90
10885;DHT22;5495;53.252;10.390;2023-04-03T05:24:39;-0.30;99.90
10885;DHT22;5495;53.252;10.390;2023-04-03T05:27:21;-0.30;99.90
10885;DHT22;5495;53.252;10.390;2023-04-03T05:29:59;-0.20;99.90
10885;DHT22;5495;53.252;10.390;2023-04-03T05:32:39;-0.20;99.90
10885;DHT22;5495;53.252;10.390;2023-04-03T05:35:27;0.00;99.90
10885;DHT22;5495;53.252;10.390;2023-04-03T05:38:06;0.10;99.90
10885;DHT22;5495;53.252;10.390;2023-04-03T05:40:46;0.20;99.90
10885;DHT22;5495;53.252;10.390;2023-04-03T05:43:14;0.40;99.90
10885;DHT22;5495;53.252;10.390;2023-04-03T05:48:42;0.60;99.90
10885;DHT22;5495;53.252;10.390;2023-04-03T05:51:24;0.60;99.90
10885;DHT22;5495;53.252;10.390;2023-04-03T05:53:56;0.70;99.90
10885;DHT22;5495;53.252;10.390;2023-04-03T05:56:32;0.90;99.90
10885;DHT22;5495;53.252;10.390;2023-04-03T05:58:59;1.00;99.90
10885;DHT22;5495;53.252;10.390;2023-04-03T06:01:29;1.10;99.90
10885;DHT22;5495;53.252;10.390;2023-04-03T06:03:57;1.20;99.90
10885;DHT22;5495;53.252;10.390;2023-04-03T06:09:31;1.40;99.90
10885;DHT22;5495;53.252;10.390;2023-04-03T06:12:04;1.40;99.90
10885;DHT22;5495;53.252;10.390;2023-04-03T06:14:31;1.00;99.90
10885;DHT22;5495;53.252;10.390;2023-04-03T06:16:59;1.50;99.90
10885;DHT22;5495;53.252;10.390;2023-04-03T06:19:27;1.60;99.90
10885;DHT22;5495;53.252;10.390;2023-04-03T06:21:57;1.80;99.90
10885;DHT22;5495;53.252;10.390;2023-04-03T06:24:25;1.90;99.90
10885;DHT22;5495;53.252;10.390;2023-04-03T06:27:06;2.00;99.90
10885;DHT22;5495;53.252;10.390;2023-04-03T06:29:52;2.10;99.90
10885;DHT22;5495;53.252;10.390;2023-04-03T06:32:40;2.20;99.90
10885;DHT22;5495;53.252;10.390;2023-04-03T06:35:09;1.90;99.90
10885;DHT22;5495;53.252;10.390;2023-04-03T06:37:36;3.10;99.90
10885;DHT22;5495;53.252;10.390;2023-04-03T06:40:20;2.30;99.90
10885;DHT22;5495;53.252;10.390;2023-04-03T06:43:10;2.40;99.90
10885;DHT22;5495;53.252;10.390;2023-04-03T06:45:42;2.50;99.90
10885;DHT22;5495;53.252;10.390;2023-04-03T06:48:18;2.50;99.90
10885;DHT22;5495;53.252;10.390;2023-04-03T06:50:46;2.60;99.90
10885;DHT22;5495;53.252;10.390;2023-04-03T06:53:26;2.70;99.90
10885;DHT22;5495;53.252;10.390;2023-04-03T06:56:16;2.70;99.90
10885;DHT22;5495;53.252;10.390;2023-04-03T06:59:06;2.90;99.90
10885;DHT22;5495;53.252;10.390;2023-04-03T07:01:34;-0.30;99.90
10885;DHT22;5495;53.252;10.390;2023-04-03T07:04:15;3.00;99.90
10885;DHT22;5495;53.252;10.390;2023-04-03T07:06:44;3.10;99.90
10885;DHT22;5495;53.252;10.390;2023-04-03T07:09:17;3.10;99.90
10885;DHT22;5495;53.252;10.390;2023-04-03T07:14:17;3.30;99.90
10885;DHT22;5495;53.252;10.390;2023-04-03T07:16:49;3.40;99.90
10885;DHT22;5495;53.252;10.390;2023-04-03T07:19:22;6.20;99.90
10885;DHT22;5495;53.252;10.390;2023-04-03T07:21:57;4.20;99.90
10885;DHT22;5495;53.252;10.390;2023-04-03T07:24:31;3.60;99.90
10885;DHT22;5495;53.252;10.390;2023-04-03T07:27:19;3.70;99.90
10885;DHT22;5495;53.252;10.390;2023-04-03T07:29:58;3.80;99.90
10885;DHT22;5495;53.252;10.390;2023-04-03T07:32:26;4.60;99.90
10885;DHT22;5495;53.252;10.390;2023-04-03T07:34:55;4.60;99.90
10885;DHT22;5495;53.252;10.390;2023-04-03T07:37:27;4.80;99.90
10885;DHT22;5495;53.252;10.390;2023-04-03T07:39:54;4.10;99.90
10885;DHT22;5495;53.252;10.390;2023-04-03T07:42:22;4.10;99.90
10885;DHT22;5495;53.252;10.390;2023-04-03T07:44:53;4.20;99.90
10885;DHT22;5495;53.252;10.390;2023-04-03T07:47:20;4.30;99.90
10885;DHT22;5495;53.252;10.390;2023-04-03T07:49:52;6.50;99.90
10885;DHT22;5495;53.252;10.390;2023-04-03T07:52:20;4.60;99.90
10885;DHT22;5495;53.252;10.390;2023-04-03T07:54:51;4.60;99.90
10885;DHT22;5495;53.252;10.390;2023-04-03T07:57:18;4.70;99.90
10885;DHT22;5495;53.252;10.390;2023-04-03T07:59:46;5.80;99.90
10885;DHT22;5495;53.252;10.390;2023-04-03T08:02:15;5.10;99.90
10885;DHT22;5495;53.252;10.390;2023-04-03T08:04:42;4.60;99.90
10885;DHT22;5495;53.252;10.390;2023-04-03T08:07:09;6.20;99.90
10885;DHT22;5495;53.252;10.390;2023-04-03T08:09:38;5.00;99.90
10885;DHT22;5495;53.252;10.390;2023-04-03T08:12:07;6.80;99.90
10885;DHT22;5495;53.252;10.390;2023-04-03T08:14:39;5.10;99.90
10885;DHT22;5495;53.252;10.390;2023-04-03T08:17:11;5.30;99.90
10885;DHT22;5495;53.252;10.390;2023-04-03T08:19:49;5.80;99.90
10885;DHT22;5495;53.252;10.390;2023-04-03T08:22:17;5.40;99.90
10885;DHT22;5495;53.252;10.390;2023-04-03T08:24:46;6.10;99.90
10885;DHT22;5495;53.252;10.390;2023-04-03T08:27:13;5.10;99.90
10885;DHT22;5495;53.252;10.390;2023-04-03T08:29:42;5.60;99.90
10885;DHT22;5495;53.252;10.390;2023-04-03T08:32:14;5.80;99.90
10885;DHT22;5495;53.252;10.390;2023-04-03T08:34:46;5.90;99.90
10885;DHT22;5495;53.252;10.390;2023-04-03T08:37:14;5.90;99.90
10885;DHT22;5495;53.252;10.390;2023-04-03T08:39:41;5.60;99.90
10885;DHT22;5495;53.252;10.390;2023-04-03T08:42:15;6.30;99.90
10885;DHT22;5495;53.252;10.390;2023-04-03T08:44:50;8.30;99.90
10885;DHT22;5495;53.252;10.390;2023-04-03T08:47:28;6.10;99.90
10885;DHT22;5495;53.252;10.390;2023-04-03T08:50:00;6.20;99.90
10885;DHT22;5495;53.252;10.390;2023-04-03T08:52:38;6.20;99.90
10885;DHT22;5495;53.252;10.390;2023-04-03T08:55:17;6.70;99.90
10885;DHT22;5495;53.252;10.390;2023-04-03T08:57:48;4.10;99.90
10885;DHT22;5495;53.252;10.390;2023-04-03T09:00:18;6.70;99.90
10885;DHT22;5495;53.252;10.390;2023-04-03T09:02:46;8.10;99.90
10885;DHT22;5495;53.252;10.390;2023-04-03T09:05:19;7.10;99.90
10885;DHT22;5495;53.252;10.390;2023-04-03T09:07:52;6.60;99.60
10885;DHT22;5495;53.252;10.390;2023-04-03T09:10:27;6.70;99.30
10885;DHT22;5495;53.252;10.390;2023-04-03T09:13:01;6.80;98.20
10885;DHT22;5495;53.252;10.390;2023-04-03T09:15:31;6.80;99.30
10885;DHT22;5495;53.252;10.390;2023-04-03T09:18:15;9.30;99.90
10885;DHT22;5495;53.252;10.390;2023-04-03T09:20:48;7.80;99.80
10885;DHT22;5495;53.252;10.390;2023-04-03T09:23:26;7.00;98.80
10885;DHT22;5495;53.252;10.390;2023-04-03T09:26:00;7.10;98.60
10885;DHT22;5495;53.252;10.390;2023-04-03T09:28:39;7.10;97.30
10885;DHT22;5495;53.252;10.390;2023-04-03T09:31:18;6.40;99.10
10885;DHT22;5495;53.252;10.390;2023-04-03T09:33:46;7.20;98.70
10885;DHT22;5495;53.252;10.390;2023-04-03T09:36:42;7.50;99.90
10885;DHT22;5495;53.252;10.390;2023-04-03T09:39:15;8.10;99.20
10885;DHT22;5495;53.252;10.390;2023-04-03T09:41:55;7.80;99.90
10885;DHT22;5495;53.252;10.390;2023-04-03T09:47:26;7.10;99.10
10885;DHT22;5495;53.252;10.390;2023-04-03T09:50:17;10.00;99.90
10885;DHT22;5495;53.252;10.390;2023-04-03T09:52:48;10.50;99.90
10885;DHT22;5495;53.252;10.390;2023-04-03T09:55:19;8.00;99.90
10885;DHT22;5495;53.252;10.390;2023-04-03T09:57:54;9.20;99.90
10885;DHT22;5495;53.252;10.390;2023-04-03T10:00:27;8.10;99.90
10885;DHT22;5495;53.252;10.390;2023-04-03T10:03:02;8.10;99.40
10885;DHT22;5495;53.252;10.390;2023-04-03T10:05:34;8.40;98.80
10885;DHT22;5495;53.252;10.390;2023-04-03T10:08:21;8.30;98.40
10885;DHT22;5495;53.252;10.390;2023-04-03T10:13:52;7.40;96.90
10885;DHT22;5495;53.252;10.390;2023-04-03T10:16:24;9.20;96.90
10885;DHT22;5495;53.252;10.390;2023-04-03T10:19:23;10.40;96.70
10885;DHT22;5495;53.252;10.390;2023-04-03T10:22:04;9.20;96.00
10885;DHT22;5495;53.252;10.390;2023-04-03T10:24:44;8.60;95.40
10885;DHT22;5495;53.252;10.390;2023-04-03T10:27:24;8.70;96.00
10885;DHT22;5495;53.252;10.390;2023-04-03T10:29:58;9.00;97.40
10885;DHT22;5495;53.252;10.390;2023-04-03T10:32:50;9.50;96.70
10885;DHT22;5495;53.252;10.390;2023-04-03T10:35:28;9.10;95.90
10885;DHT22;5495;53.252;10.390;2023-04-03T10:38:08;9.40;95.10
10885;DHT22;5495;53.252;10.390;2023-04-03T10:40:44;9.50;94.90
10885;DHT22;5495;53.252;10.390;2023-04-03T10:43:21;9.20;95.10
10885;DHT22;5495;53.252;10.390;2023-04-03T10:45:59;9.30;93.80
10885;DHT22;5495;53.252;10.390;2023-04-03T10:49:04;9.40;94.10
10885;DHT22;5495;53.252;10.390;2023-04-03T10:51:41;7.40;92.90
10885;DHT22;5495;53.252;10.390;2023-04-03T10:54:13;9.30;92.20
10885;DHT22;5495;53.252;10.390;2023-04-03T10:56:48;9.20;94.70
10885;DHT22;5495;53.252;10.390;2023-04-03T10:59:31;9.50;96.00
10885;DHT22;5495;53.252;10.390;2023-04-03T11:02:05;10.40;95.90
10885;DHT22;5495;53.252;10.390;2023-04-03T11:04:42;9.20;94.90
10885;DHT22;5495;53.252;10.390;2023-04-03T11:07:26;10.50;94.30
10885;DHT22;5495;53.252;10.390;2023-04-03T11:10:00;10.40;92.60
10885;DHT22;5495;53.252;10.390;2023-04-03T11:12:37;10.30;93.70
10885;DHT22;5495;53.252;10.390;2023-04-03T11:15:16;10.30;94.20
10885;DHT22;5495;53.252;10.390;2023-04-03T11:18:02;9.80;94.00
10885;DHT22;5495;53.252;10.390;2023-04-03T11:20:37;10.00;94.50
10885;DHT22;5495;53.252;10.390;2023-04-03T11:23:31;9.70;94.40
10885;DHT22;5495;53.252;10.390;2023-04-03T11:26:10;8.60;92.70
10885;DHT22;5495;53.252;10.390;2023-04-03T11:28:40;9.10;93.00
10885;DHT22;5495;53.252;10.390;2023-04-03T11:31:20;8.70;93.60
10885;DHT22;5495;53.252;10.390;2023-04-03T11:34:13;8.60;93.10
10885;DHT22;5495;53.252;10.390;2023-04-03T11:36:49;8.80;93.40
10885;DHT22;5495;53.252;10.390;2023-04-03T11:39:40;9.70;94.50
10885;DHT22;5495;53.252;10.390;2023-04-03T11:42:15;10.20;93.30
10885;DHT22;5495;53.252;10.390;2023-04-03T11:44:48;9.80;93.40
10885;DHT22;5495;53.252;10.390;2023-04-03T11:47:45;10.40;92.20
10885;DHT22;5495;53.252;10.390;2023-04-03T11:50:37;10.60;92.50
10885;DHT22;5495;53.252;10.390;2023-04-03T11:53:34;9.60;92.50
10885;DHT22;5495;53.252;10.390;2023-04-03T11:56:06;9.40;92.60
10885;DHT22;5495;53.252;10.390;2023-04-03T11:59:24;10.00;93.20
10885;DHT22;5495;53.252;10.390;2023-04-03T12:05:27;10.20;92.40
10885;DHT22;5495;53.252;10.390;2023-04-03T12:08:24;11.00;92.50
10885;DHT22;5495;53.252;10.390;2023-04-03T12:17:53;10.30;91.30
10885;DHT22;5495;53.252;10.390;2023-04-03T12:21:00;9.90;92.40
10885;DHT22;5495;53.252;10.390;2023-04-03T12:23:32;9.80;91.40
10885;DHT22;5495;53.252;10.390;2023-04-03T12:26:02;10.50;92.30
10885;DHT22;5495;53.252;10.390;2023-04-03T12:28:39;9.60;91.00
10885;DHT22;5495;53.252;10.390;2023-04-03T12:31:16;9.50;92.80
10885;DHT22;5495;53.252;10.390;2023-04-03T12:34:12;10.00;92.90
10885;DHT22;5495;53.252;10.390;2023-04-03T12:37:00;10.70;92.00
10885;DHT22;5495;53.252;10.390;2023-04-03T12:39:55;9.60;93.20
10885;DHT22;5495;53.252;10.390;2023-04-03T12:42:47;9.20;91.70
10885;DHT22;5495;53.252;10.390;2023-04-03T12:45:25;9.10;92.20
10885;DHT22;5495;53.252;10.390;2023-04-03T12:47:57;9.30;93.40
10885;DHT22;5495;53.252;10.390;2023-04-03T12:50:48;9.00;93.10
10885;DHT22;5495;53.252;10.390;2023-04-03T12:53:21;8.60;92.90
10885;DHT22;5495;53.252;10.390;2023-04-03T12:55:53;9.10;92.40
10885;DHT22;5495;53.252;10.390;2023-04-03T12:58:28;9.20;92.50
10885;DHT22;5495;53.252;10.390;2023-04-03T13:01:02;9.70;94.20
10885;DHT22;5495;53.252;10.390;2023-04-03T13:03:30;9.80;92.50
10885;DHT22;5495;53.252;10.390;2023-04-03T13:06:01;10.50;92.70
10885;DHT22;5495;53.252;10.390;2023-04-03T13:08:35;11.80;91.50
10885;DHT22;5495;53.252;10.390;2023-04-03T13:11:11;11.40;91.60
10885;DHT22;5495;53.252;10.390;2023-04-03T13:13:56;11.00;90.80
10885;DHT22;5495;53.252;10.390;2023-04-03T13:16:32;10.80;88.10
10885;DHT22;5495;53.252;10.390;2023-04-03T13:19:16;10.90;88.90
10885;DHT22;5495;53.252;10.390;2023-04-03T13:21:46;11.20;90.30
10885;DHT22;5495;53.252;10.390;2023-04-03T13:24:16;11.20;90.80
10885;DHT22;5495;53.252;10.390;2023-04-03T13:26:43;11.50;91.30
10885;DHT22;5495;53.252;10.390;2023-04-03T13:29:22;14.30;90.80
10885;DHT22;5495;53.252;10.390;2023-04-03T13:31:52;10.70;90.00
10885;DHT22;5495;53.252;10.390;2023-04-03T13:34:26;10.20;88.80
10885;DHT22;5495;53.252;10.390;2023-04-03T13:37:01;10.30;88.20
10885;DHT22;5495;53.252;10.390;2023-04-03T13:39:38;10.10;90.30
10885;DHT22;5495;53.252;10.390;2023-04-03T13:42:23;7.30;90.00
10885;DHT22;5495;53.252;10.390;2023-04-03T13:48:06;9.70;90.30
10885;DHT22;5495;53.252;10.390;2023-04-03T13:51:00;9.80;91.10
10885;DHT22;5495;53.252;10.390;2023-04-03T13:53:46;9.90;90.50
10885;DHT22;5495;53.252;10.390;2023-04-03T13:56:24;9.30;90.80
10885;DHT22;5495;53.252;10.390;2023-04-03T13:59:02;10.20;88.80
10885;DHT22;5495;53.252;10.390;2023-04-03T14:01:42;10.80;90.00
10885;DHT22;5495;53.252;10.390;2023-04-03T14:04:23;10.50;87.60
10885;DHT22;5495;53.252;10.390;2023-04-03T14:06:58;10.10;89.50
10885;DHT22;5495;53.252;10.390;2023-04-03T14:12:40;10.20;89.60
10885;DHT22;5495;53.252;10.390;2023-04-03T14:15:24;9.80;90.90
10885;DHT22;5495;53.252;10.390;2023-04-03T14:18:21;8.90;89.80
10885;DHT22;5495;53.252;10.390;2023-04-03T14:20:58;9.70;88.20
10885;DHT22;5495;53.252;10.390;2023-04-03T14:23:49;10.80;90.10
10885;DHT22;5495;53.252;10.390;2023-04-03T14:26:38;10.20;87.20
10885;DHT22;5495;53.252;10.390;2023-04-03T14:29:35;10.40;90.10
10885;DHT22;5495;53.252;10.390;2023-04-03T14:35:15;9.10;89.30
10885;DHT22;5495;53.252;10.390;2023-04-03T14:39:33;10.70;87.70
10885;DHT22;5495;53.252;10.390;2023-04-03T14:41:19;9.90;87.90
10885;DHT22;5495;53.252;10.390;2023-04-03T14:44:18;10.20;88.00
10885;DHT22;5495;53.252;10.390;2023-04-03T14:51:08;10.10;89.70
10885;DHT22;5495;53.252;10.390;2023-04-03T14:53:29;9.60;90.10
10885;DHT22;5495;53.252;10.390;2023-04-03T14:55:59;10.10;90.40
10885;DHT22;5495;53.252;10.390;2023-04-03T14:58:29;9.70;91.10
10885;DHT22;5495;53.252;10.390;2023-04-03T15:00:59;11.90;91.20
10885;DHT22;5495;53.252;10.390;2023-04-03T15:03:28;10.00;90.70
10885;DHT22;5495;53.252;10.390;2023-04-03T15:05:55;9.80;90.50
10885;DHT22;5495;53.252;10.390;2023-04-03T15:08:25;9.90;89.30
10885;DHT22;5495;53.252;10.390;2023-04-03T15:10:55;9.70;89.90
10885;DHT22;5495;53.252;10.390;2023-04-03T15:13:25;10.70;88.10
10885;DHT22;5495;53.252;10.390;2023-04-03T15:15:54;10.20;89.90
10885;DHT22;5495;53.252;10.390;2023-04-03T15:18:33;7.50;84.40
10885;DHT22;5495;53.252;10.390;2023-04-03T15:21:04;11.80;87.70
10885;DHT22;5495;53.252;10.390;2023-04-03T15:23:33;9.60;88.90
10885;DHT22;5495;53.252;10.390;2023-04-03T15:26:00;9.60;90.00
10885;DHT22;5495;53.252;10.390;2023-04-03T15:28:30;10.20;89.50
10885;DHT22;5495;53.252;10.390;2023-04-03T15:30:59;8.10;84.90
10885;DHT22;5495;53.252;10.390;2023-04-03T15:33:27;9.80;87.70
10885;DHT22;5495;53.252;10.390;2023-04-03T15:35:55;10.10;87.00
10885;DHT22;5495;53.252;10.390;2023-04-03T15:38:25;9.60;89.20
10885;DHT22;5495;53.252;10.390;2023-04-03T15:40:52;9.80;85.60
10885;DHT22;5495;53.252;10.390;2023-04-03T15:43:20;9.20;85.80
10885;DHT22;5495;53.252;10.390;2023-04-03T15:45:48;9.10;86.60
10885;DHT22;5495;53.252;10.390;2023-04-03T15:48:16;9.10;85.40
10885;DHT22;5495;53.252;10.390;2023-04-03T15:50:43;8.90;84.50
10885;DHT22;5495;53.252;10.390;2023-04-03T15:53:16;8.70;84.70
10885;DHT22;5495;53.252;10.390;2023-04-03T15:55:43;8.80;86.20
10885;DHT22;5495;53.252;10.390;2023-04-03T15:58:13;8.50;87.10
10885;DHT22;5495;53.252;10.390;2023-04-03T16:00:40;8.40;86.90
10885;DHT22;5495;53.252;10.390;2023-04-03T16:03:17;8.50;88.20
10885;DHT22;5495;53.252;10.390;2023-04-03T16:05:45;8.60;90.00
10885;DHT22;5495;53.252;10.390;2023-04-03T16:08:17;8.20;87.40
10885;DHT22;5495;53.252;10.390;2023-04-03T16:10:44;9.10;88.70
10885;DHT22;5495;53.252;10.390;2023-04-03T16:13:14;8.00;86.10
10885;DHT22;5495;53.252;10.390;2023-04-03T16:15:41;7.90;87.70
10885;DHT22;5495;53.252;10.390;2023-04-03T16:18:09;8.20;88.30
10885;DHT22;5495;53.252;10.390;2023-04-03T16:20:36;7.90;89.20
10885;DHT22;5495;53.252;10.390;2023-04-03T16:23:04;6.50;89.40
10885;DHT22;5495;53.252;10.390;2023-04-03T16:25:32;8.00;90.10
10885;DHT22;5495;53.252;10.390;2023-04-03T16:28:02;7.80;90.60
10885;DHT22;5495;53.252;10.390;2023-04-03T16:30:29;7.40;88.20
10885;DHT22;5495;53.252;10.390;2023-04-03T16:32:57;10.30;91.30
10885;DHT22;5495;53.252;10.390;2023-04-03T16:35:25;9.40;91.00
10885;DHT22;5495;53.252;10.390;2023-04-03T16:37:52;7.40;88.90
10885;DHT22;5495;53.252;10.390;2023-04-03T16:40:20;7.90;89.60
10885;DHT22;5495;53.252;10.390;2023-04-03T16:42:51;7.40;88.20
10885;DHT22;5495;53.252;10.390;2023-04-03T16:45:18;8.20;90.60
10885;DHT22;5495;53.252;10.390;2023-04-03T16:47:48;7.30;90.20
10885;DHT22;5495;53.252;10.390;2023-04-03T16:50:18;7.80;90.00
10885;DHT22;5495;53.252;10.390;2023-04-03T16:52:49;7.20;90.20
10885;DHT22;5495;53.252;10.390;2023-04-03T16:55:19;7.50;90.10
10885;DHT22;5495;53.252;10.390;2023-04-03T16:57:51;7.30;90.00
10885;DHT22;5495;53.252;10.390;2023-04-03T17:00:22;7.50;91.10
10885;DHT22;5495;53.252;10.390;2023-04-03T17:02:49;7.30;87.30
10885;DHT22;5495;53.252;10.390;2023-04-03T17:05:17;7.40;89.20
10885;DHT22;5495;53.252;10.390;2023-04-03T17:08:42;6.80;86.90
10885;DHT22;5495;53.252;10.390;2023-04-03T17:10:59;6.80;88.30
10885;DHT22;5495;53.252;10.390;2023-04-03T17:13:28;5.90;88.80
10885;DHT22;5495;53.252;10.390;2023-04-03T17:16:04;7.90;87.70
10885;DHT22;5495;53.252;10.390;2023-04-03T17:18:32;6.10;85.00
10885;DHT22;5495;53.252;10.390;2023-04-03T17:21:09;8.80;90.00
10885;DHT22;5495;53.252;10.390;2023-04-03T17:23:40;5.80;89.30
10885;DHT22;5495;53.252;10.390;2023-04-03T17:26:21;5.50;89.50